sensor_id;sensor_type;location;lat;lon;timestamp;P1;durP1;ratioP1;P2;durP2;ratioP2
5704;SDS011;2877;48.238;11.160;2022-09-27T00:01:34;1.47;;;1.40;;
5704;SDS011;2877;48.238;11.160;2022-09-27T00:04:00;1.50;;;1.40;;
5704;SDS011;2877;48.238;11.160;2022-09-27T00:06:29;1.60;;;1.50;;
5704;SDS011;2877;48.238;11.160;2022-09-27T00:08:56;2.70;;;1.40;;
5704;SDS011;2877;48.238;11.160;2022-09-27T00:11:29;4.97;;;1.63;;
5704;SDS011;2877;48.238;11.160;2022-09-27T00:14:00;1.30;;;1.20;;
5704;SDS011;2877;48.238;11.160;2022-09-27T00:16:31;1.53;;;1.43;;
5704;SDS011;2877;48.238;11.160;2022-09-27T00:18:59;2.20;;;1.60;;
5704;SDS011;2877;48.238;11.160;2022-09-27T00:21:26;1.67;;;1.53;;
5704;SDS011;2877;48.238;11.160;2022-09-27T00:23:54;3.73;;;1.70;;
5704;SDS011;2877;48.238;11.160;2022-09-27T00:26:20;1.90;;;1.43;;
5704;SDS011;2877;48.238;11.160;2022-09-27T00:28:46;2.33;;;1.67;;
5704;SDS011;2877;48.238;11.160;2022-09-27T00:31:18;5.20;;;1.80;;
5704;SDS011;2877;48.238;11.160;2022-09-27T00:33:50;1.80;;;1.70;;
5704;SDS011;2877;48.238;11.160;2022-09-27T00:36:17;1.53;;;1.43;;
5704;SDS011;2877;48.238;11.160;2022-09-27T00:38:44;1.33;;;1.23;;
5704;SDS011;2877;48.238;11.160;2022-09-27T00:41:12;2.13;;;1.93;;
5704;SDS011;2877;48.238;11.160;2022-09-27T00:43:56;1.80;;;1.70;;
5704;SDS011;2877;48.238;11.160;2022-09-27T00:46:28;2.53;;;2.30;;
5704;SDS011;2877;48.238;11.160;2022-09-27T00:49:19;1.93;;;1.30;;
5704;SDS011;2877;48.238;11.160;2022-09-27T00:51:54;1.60;;;1.50;;
5704;SDS011;2877;48.238;11.160;2022-09-27T00:54:26;1.43;;;1.30;;
5704;SDS011;2877;48.238;11.160;2022-09-27T00:56:55;1.57;;;1.47;;
5704;SDS011;2877;48.238;11.160;2022-09-27T00:59:22;1.73;;;1.40;;
5704;SDS011;2877;48.238;11.160;2022-09-27T01:01:52;1.90;;;1.60;;
5704;SDS011;2877;48.238;11.160;2022-09-27T01:04:21;1.97;;;1.77;;
5704;SDS011;2877;48.238;11.160;2022-09-27T01:06:50;1.77;;;1.47;;
5704;SDS011;2877;48.238;11.160;2022-09-27T01:09:16;2.87;;;1.20;;
5704;SDS011;2877;48.238;11.160;2022-09-27T01:20:04;1.47;;;1.37;;
5704;SDS011;2877;48.238;11.160;2022-09-27T01:31:41;2.50;;;1.60;;
5704;SDS011;2877;48.238;11.160;2022-09-27T01:37:21;1.60;;;1.50;;
5704;SDS011;2877;48.238;11.160;2022-09-27T01:46:09;1.57;;;1.47;;
5704;SDS011;2877;48.238;11.160;2022-09-27T01:48:35;1.87;;;1.33;;
5704;SDS011;2877;48.238;11.160;2022-09-27T01:51:12;1.30;;;1.20;;
5704;SDS011;2877;48.238;11.160;2022-09-27T01:53:43;1.73;;;1.17;;
5704;SDS011;2877;48.238;11.160;2022-09-27T01:56:14;2.73;;;2.00;;
5704;SDS011;2877;48.238;11.160;2022-09-27T01:58:48;1.33;;;1.23;;
5704;SDS011;2877;48.238;11.160;2022-09-27T02:01:16;2.40;;;1.53;;
5704;SDS011;2877;48.238;11.160;2022-09-27T02:03:47;2.80;;;1.50;;
5704;SDS011;2877;48.238;11.160;2022-09-27T02:06:17;2.63;;;1.40;;
5704;SDS011;2877;48.238;11.160;2022-09-27T02:08:54;1.80;;;1.63;;
5704;SDS011;2877;48.238;11.160;2022-09-27T02:11:27;1.50;;;1.40;;
5704;SDS011;2877;48.238;11.160;2022-09-27T02:14:03;4.93;;;1.83;;
5704;SDS011;2877;48.238;11.160;2022-09-27T02:16:50;2.07;;;1.50;;
5704;SDS011;2877;48.238;11.160;2022-09-27T02:19:37;1.60;;;1.50;;
5704;SDS011;2877;48.238;11.160;2022-09-27T02:24:47;1.40;;;1.10;;
5704;SDS011;2877;48.238;11.160;2022-09-27T02:27:27;2.13;;;1.93;;
5704;SDS011;2877;48.238;11.160;2022-09-27T02:32:31;1.47;;;1.37;;
5704;SDS011;2877;48.238;11.160;2022-09-27T02:34:58;1.60;;;1.50;;
5704;SDS011;2877;48.238;11.160;2022-09-27T02:37:28;1.80;;;1.40;;
5704;SDS011;2877;48.238;11.160;2022-09-27T02:39:54;1.60;;;1.50;;
5704;SDS011;2877;48.238;11.160;2022-09-27T02:42:21;1.50;;;1.40;;
5704;SDS011;2877;48.238;11.160;2022-09-27T02:44:47;2.03;;;1.57;;
5704;SDS011;2877;48.238;11.160;2022-09-27T02:48:14;2.40;;;1.60;;
5704;SDS011;2877;48.238;11.160;2022-09-27T03:07:30;1.80;;;1.70;;
5704;SDS011;2877;48.238;11.160;2022-09-27T03:09:56;2.17;;;1.60;;
5704;SDS011;2877;48.238;11.160;2022-09-27T03:12:22;2.23;;;2.03;;
5704;SDS011;2877;48.238;11.160;2022-09-27T03:14:54;2.97;;;1.50;;
5704;SDS011;2877;48.238;11.160;2022-09-27T03:17:22;1.93;;;1.80;;
5704;SDS011;2877;48.238;11.160;2022-09-27T03:19:48;1.70;;;1.57;;
5704;SDS011;2877;48.238;11.160;2022-09-27T03:22:13;1.80;;;1.70;;
5704;SDS011;2877;48.238;11.160;2022-09-27T03:24:39;1.83;;;1.73;;
5704;SDS011;2877;48.238;11.160;2022-09-27T03:27:05;1.80;;;1.70;;
5704;SDS011;2877;48.238;11.160;2022-09-27T03:29:31;1.77;;;1.67;;
5704;SDS011;2877;48.238;11.160;2022-09-27T03:31:56;1.93;;;1.70;;
5704;SDS011;2877;48.238;11.160;2022-09-27T03:34:22;1.83;;;1.73;;
5704;SDS011;2877;48.238;11.160;2022-09-27T03:36:48;2.67;;;1.67;;
5704;SDS011;2877;48.238;11.160;2022-09-27T03:39:14;1.40;;;1.30;;
5704;SDS011;2877;48.238;11.160;2022-09-27T03:41:39;1.53;;;1.53;;
5704;SDS011;2877;48.238;11.160;2022-09-27T03:44:05;1.70;;;1.60;;
5704;SDS011;2877;48.238;11.160;2022-09-27T03:46:32;2.10;;;1.20;;
5704;SDS011;2877;48.238;11.160;2022-09-27T03:48:57;2.40;;;1.50;;
5704;SDS011;2877;48.238;11.160;2022-09-27T03:51:23;1.33;;;1.23;;
5704;SDS011;2877;48.238;11.160;2022-09-27T03:53:49;1.30;;;1.30;;
5704;SDS011;2877;48.238;11.160;2022-09-27T03:56:15;3.57;;;1.13;;
5704;SDS011;2877;48.238;11.160;2022-09-27T03:58:41;1.40;;;1.30;;
5704;SDS011;2877;48.238;11.160;2022-09-27T04:01:06;1.20;;;1.20;;
5704;SDS011;2877;48.238;11.160;2022-09-27T04:03:32;1.10;;;1.10;;
5704;SDS011;2877;48.238;11.160;2022-09-27T04:05:59;1.40;;;1.10;;
5704;SDS011;2877;48.238;11.160;2022-09-27T04:08:24;0.90;;;0.90;;
5704;SDS011;2877;48.238;11.160;2022-09-27T04:10:50;1.73;;;1.27;;
5704;SDS011;2877;48.238;11.160;2022-09-27T04:13:15;1.40;;;0.80;;
5704;SDS011;2877;48.238;11.160;2022-09-27T04:15:41;0.87;;;0.87;;
5704;SDS011;2877;48.238;11.160;2022-09-27T04:18:07;0.80;;;0.80;;
5704;SDS011;2877;48.238;11.160;2022-09-27T04:20:32;0.83;;;0.83;;
5704;SDS011;2877;48.238;11.160;2022-09-27T04:22:59;0.77;;;0.77;;
5704;SDS011;2877;48.238;11.160;2022-09-27T04:25:25;0.70;;;0.70;;
5704;SDS011;2877;48.238;11.160;2022-09-27T04:27:50;1.83;;;0.73;;
5704;SDS011;2877;48.238;11.160;2022-09-27T04:30:18;0.80;;;0.80;;
5704;SDS011;2877;48.238;11.160;2022-09-27T04:32:45;0.80;;;0.80;;
5704;SDS011;2877;48.238;11.160;2022-09-27T04:35:11;1.00;;;1.00;;
5704;SDS011;2877;48.238;11.160;2022-09-27T04:37:56;0.77;;;0.77;;
5704;SDS011;2877;48.238;11.160;2022-09-27T04:40:22;0.70;;;0.70;;
5704;SDS011;2877;48.238;11.160;2022-09-27T04:42:48;1.00;;;0.73;;
5704;SDS011;2877;48.238;11.160;2022-09-27T04:45:14;1.37;;;1.20;;
5704;SDS011;2877;48.238;11.160;2022-09-27T04:47:44;2.57;;;0.70;;
5704;SDS011;2877;48.238;11.160;2022-09-27T04:50:11;0.80;;;0.80;;
5704;SDS011;2877;48.238;11.160;2022-09-27T04:52:38;0.87;;;0.87;;
5704;SDS011;2877;48.238;11.160;2022-09-27T04:55:04;0.70;;;0.70;;
5704;SDS011;2877;48.238;11.160;2022-09-27T04:57:31;1.03;;;0.70;;
5704;SDS011;2877;48.238;11.160;2022-09-27T04:59:57;0.70;;;0.63;;
5704;SDS011;2877;48.238;11.160;2022-09-27T05:02:24;0.70;;;0.70;;
5704;SDS011;2877;48.238;11.160;2022-09-27T05:04:51;0.70;;;0.70;;
5704;SDS011;2877;48.238;11.160;2022-09-27T05:07:16;2.67;;;0.80;;
5704;SDS011;2877;48.238;11.160;2022-09-27T05:09:42;0.60;;;0.60;;
5704;SDS011;2877;48.238;11.160;2022-09-27T05:12:08;1.13;;;0.80;;
5704;SDS011;2877;48.238;11.160;2022-09-27T05:14:35;1.00;;;0.60;;
5704;SDS011;2877;48.238;11.160;2022-09-27T05:17:01;3.07;;;0.70;;
5704;SDS011;2877;48.238;11.160;2022-09-27T05:19:26;1.37;;;1.10;;
5704;SDS011;2877;48.238;11.160;2022-09-27T05:21:52;1.50;;;0.70;;
5704;SDS011;2877;48.238;11.160;2022-09-27T05:24:18;1.57;;;0.80;;
5704;SDS011;2877;48.238;11.160;2022-09-27T05:26:44;0.90;;;0.87;;
5704;SDS011;2877;48.238;11.160;2022-09-27T05:29:11;0.97;;;0.97;;
5704;SDS011;2877;48.238;11.160;2022-09-27T05:31:36;0.50;;;0.50;;
5704;SDS011;2877;48.238;11.160;2022-09-27T05:34:02;3.63;;;0.60;;
5704;SDS011;2877;48.238;11.160;2022-09-27T05:36:27;0.80;;;0.80;;
5704;SDS011;2877;48.238;11.160;2022-09-27T05:38:53;0.67;;;0.50;;
5704;SDS011;2877;48.238;11.160;2022-09-27T05:41:19;1.30;;;1.20;;
5704;SDS011;2877;48.238;11.160;2022-09-27T05:43:45;0.80;;;0.70;;
5704;SDS011;2877;48.238;11.160;2022-09-27T05:46:11;0.60;;;0.57;;
5704;SDS011;2877;48.238;11.160;2022-09-27T05:48:36;1.63;;;0.80;;
5704;SDS011;2877;48.238;11.160;2022-09-27T05:51:02;0.80;;;0.80;;
5704;SDS011;2877;48.238;11.160;2022-09-27T05:53:28;0.90;;;0.80;;
5704;SDS011;2877;48.238;11.160;2022-09-27T05:55:55;0.87;;;0.87;;
5704;SDS011;2877;48.238;11.160;2022-09-27T05:58:24;3.00;;;1.20;;
5704;SDS011;2877;48.238;11.160;2022-09-27T06:00:50;2.30;;;0.97;;
5704;SDS011;2877;48.238;11.160;2022-09-27T06:03:15;1.37;;;1.27;;
5704;SDS011;2877;48.238;11.160;2022-09-27T06:05:42;2.57;;;1.03;;
5704;SDS011;2877;48.238;11.160;2022-09-27T06:08:08;0.90;;;0.90;;
5704;SDS011;2877;48.238;11.160;2022-09-27T06:10:36;1.53;;;1.03;;
5704;SDS011;2877;48.238;11.160;2022-09-27T06:13:03;1.70;;;0.93;;
5704;SDS011;2877;48.238;11.160;2022-09-27T06:15:34;1.07;;;0.60;;
5704;SDS011;2877;48.238;11.160;2022-09-27T06:18:04;4.07;;;0.90;;
5704;SDS011;2877;48.238;11.160;2022-09-27T06:20:31;0.60;;;0.60;;
5704;SDS011;2877;48.238;11.160;2022-09-27T06:25:31;2.30;;;1.10;;
5704;SDS011;2877;48.238;11.160;2022-09-27T06:27:57;1.43;;;0.87;;
5704;SDS011;2877;48.238;11.160;2022-09-27T06:30:22;1.27;;;0.70;;
5704;SDS011;2877;48.238;11.160;2022-09-27T06:32:48;2.10;;;0.90;;
5704;SDS011;2877;48.238;11.160;2022-09-27T06:35:23;0.80;;;0.80;;
5704;SDS011;2877;48.238;11.160;2022-09-27T06:37:49;1.30;;;1.20;;
5704;SDS011;2877;48.238;11.160;2022-09-27T06:40:15;1.30;;;1.07;;
5704;SDS011;2877;48.238;11.160;2022-09-27T06:42:42;0.87;;;0.87;;
5704;SDS011;2877;48.238;11.160;2022-09-27T06:45:07;1.20;;;0.73;;
5704;SDS011;2877;48.238;11.160;2022-09-27T06:47:34;3.50;;;1.07;;
5704;SDS011;2877;48.238;11.160;2022-09-27T06:50:00;3.33;;;1.20;;
5704;SDS011;2877;48.238;11.160;2022-09-27T06:52:29;0.87;;;0.87;;
5704;SDS011;2877;48.238;11.160;2022-09-27T06:54:55;2.13;;;0.87;;
5704;SDS011;2877;48.238;11.160;2022-09-27T06:57:20;0.80;;;0.80;;
5704;SDS011;2877;48.238;11.160;2022-09-27T07:00:05;2.17;;;1.17;;
5704;SDS011;2877;48.238;11.160;2022-09-27T07:02:50;1.73;;;1.17;;
5704;SDS011;2877;48.238;11.160;2022-09-27T07:05:20;2.90;;;1.00;;
5704;SDS011;2877;48.238;11.160;2022-09-27T07:07:45;1.50;;;1.10;;
5704;SDS011;2877;48.238;11.160;2022-09-27T07:10:17;2.37;;;0.90;;
5704;SDS011;2877;48.238;11.160;2022-09-27T07:12:43;1.17;;;1.00;;
5704;SDS011;2877;48.238;11.160;2022-09-27T07:15:12;2.77;;;0.93;;
5704;SDS011;2877;48.238;11.160;2022-09-27T07:17:38;1.87;;;1.20;;
5704;SDS011;2877;48.238;11.160;2022-09-27T07:20:04;1.20;;;1.10;;
5704;SDS011;2877;48.238;11.160;2022-09-27T07:22:30;1.93;;;0.93;;
5704;SDS011;2877;48.238;11.160;2022-09-27T07:24:55;2.27;;;1.10;;
5704;SDS011;2877;48.238;11.160;2022-09-27T07:27:21;1.13;;;1.00;;
5704;SDS011;2877;48.238;11.160;2022-09-27T07:29:46;1.77;;;1.23;;
5704;SDS011;2877;48.238;11.160;2022-09-27T07:32:12;1.03;;;0.90;;
5704;SDS011;2877;48.238;11.160;2022-09-27T07:34:38;1.97;;;0.90;;
5704;SDS011;2877;48.238;11.160;2022-09-27T07:37:03;0.50;;;0.40;;
5704;SDS011;2877;48.238;11.160;2022-09-27T07:39:30;3.63;;;0.70;;
5704;SDS011;2877;48.238;11.160;2022-09-27T07:41:56;0.67;;;0.60;;
5704;SDS011;2877;48.238;11.160;2022-09-27T07:44:22;0.70;;;0.43;;
5704;SDS011;2877;48.238;11.160;2022-09-27T07:46:48;0.53;;;0.50;;
5704;SDS011;2877;48.238;11.160;2022-09-27T07:49:14;0.43;;;0.43;;
5704;SDS011;2877;48.238;11.160;2022-09-27T07:51:39;1.53;;;0.40;;
5704;SDS011;2877;48.238;11.160;2022-09-27T07:54:05;0.93;;;0.57;;
5704;SDS011;2877;48.238;11.160;2022-09-27T07:56:31;1.87;;;0.93;;
5704;SDS011;2877;48.238;11.160;2022-09-27T07:58:57;0.80;;;0.80;;
5704;SDS011;2877;48.238;11.160;2022-09-27T08:01:23;4.13;;;0.73;;
5704;SDS011;2877;48.238;11.160;2022-09-27T08:03:48;2.10;;;0.60;;
5704;SDS011;2877;48.238;11.160;2022-09-27T08:06:14;1.80;;;0.50;;
5704;SDS011;2877;48.238;11.160;2022-09-27T08:08:40;0.60;;;0.60;;
5704;SDS011;2877;48.238;11.160;2022-09-27T08:11:15;0.60;;;0.50;;
5704;SDS011;2877;48.238;11.160;2022-09-27T08:13:42;0.60;;;0.60;;
5704;SDS011;2877;48.238;11.160;2022-09-27T08:16:09;0.60;;;0.60;;
5704;SDS011;2877;48.238;11.160;2022-09-27T08:18:35;0.60;;;0.60;;
5704;SDS011;2877;48.238;11.160;2022-09-27T08:21:01;0.87;;;0.87;;
5704;SDS011;2877;48.238;11.160;2022-09-27T08:23:27;2.60;;;0.80;;
5704;SDS011;2877;48.238;11.160;2022-09-27T08:25:54;1.17;;;1.03;;
5704;SDS011;2877;48.238;11.160;2022-09-27T08:28:23;1.37;;;1.10;;
5704;SDS011;2877;48.238;11.160;2022-09-27T08:30:49;0.60;;;0.60;;
5704;SDS011;2877;48.238;11.160;2022-09-27T08:33:15;0.70;;;0.70;;
5704;SDS011;2877;48.238;11.160;2022-09-27T08:35:40;0.70;;;0.60;;
5704;SDS011;2877;48.238;11.160;2022-09-27T08:38:06;1.07;;;0.60;;
5704;SDS011;2877;48.238;11.160;2022-09-27T08:45:55;1.50;;;0.80;;
5704;SDS011;2877;48.238;11.160;2022-09-27T08:48:32;0.50;;;0.50;;
5704;SDS011;2877;48.238;11.160;2022-09-27T08:51:01;0.73;;;0.73;;
5704;SDS011;2877;48.238;11.160;2022-09-27T08:53:40;1.17;;;0.70;;
5704;SDS011;2877;48.238;11.160;2022-09-27T08:56:14;0.60;;;0.60;;
5704;SDS011;2877;48.238;11.160;2022-09-27T08:59:03;0.70;;;0.70;;
5704;SDS011;2877;48.238;11.160;2022-09-27T09:01:38;4.67;;;0.70;;
5704;SDS011;2877;48.238;11.160;2022-09-27T09:04:05;1.00;;;1.00;;
5704;SDS011;2877;48.238;11.160;2022-09-27T09:09:29;0.97;;;0.53;;
5704;SDS011;2877;48.238;11.160;2022-09-27T09:12:36;0.60;;;0.60;;
5704;SDS011;2877;48.238;11.160;2022-09-27T09:18:29;1.13;;;0.60;;
5704;SDS011;2877;48.238;11.160;2022-09-27T09:26:51;0.40;;;0.40;;
5704;SDS011;2877;48.238;11.160;2022-09-27T09:34:44;0.43;;;0.43;;
5704;SDS011;2877;48.238;11.160;2022-09-27T09:45:37;0.40;;;0.40;;
5704;SDS011;2877;48.238;11.160;2022-09-27T09:50:52;0.57;;;0.50;;
5704;SDS011;2877;48.238;11.160;2022-09-27T09:53:41;1.30;;;0.47;;
5704;SDS011;2877;48.238;11.160;2022-09-27T09:56:30;0.47;;;0.40;;
5704;SDS011;2877;48.238;11.160;2022-09-27T09:59:22;0.60;;;0.60;;
5704;SDS011;2877;48.238;11.160;2022-09-27T10:01:50;0.40;;;0.40;;
5704;SDS011;2877;48.238;11.160;2022-09-27T10:04:20;0.50;;;0.50;;
5704;SDS011;2877;48.238;11.160;2022-09-27T10:06:48;0.80;;;0.80;;
5704;SDS011;2877;48.238;11.160;2022-09-27T10:09:16;1.70;;;0.40;;
5704;SDS011;2877;48.238;11.160;2022-09-27T10:11:44;1.03;;;0.50;;
5704;SDS011;2877;48.238;11.160;2022-09-27T10:14:11;0.50;;;0.50;;
5704;SDS011;2877;48.238;11.160;2022-09-27T10:16:39;2.10;;;0.50;;
5704;SDS011;2877;48.238;11.160;2022-09-27T10:19:07;0.57;;;0.57;;
5704;SDS011;2877;48.238;11.160;2022-09-27T10:21:33;28.03;;;0.90;;
5704;SDS011;2877;48.238;11.160;2022-09-27T10:24:09;0.60;;;0.50;;
5704;SDS011;2877;48.238;11.160;2022-09-27T10:26:36;0.50;;;0.50;;
5704;SDS011;2877;48.238;11.160;2022-09-27T10:31:47;2.77;;;0.90;;
5704;SDS011;2877;48.238;11.160;2022-09-27T10:34:19;0.70;;;0.70;;
5704;SDS011;2877;48.238;11.160;2022-09-27T10:39:40;0.93;;;0.60;;
5704;SDS011;2877;48.238;11.160;2022-09-27T10:42:21;0.80;;;0.63;;
5704;SDS011;2877;48.238;11.160;2022-09-27T10:47:52;0.50;;;0.50;;
5704;SDS011;2877;48.238;11.160;2022-09-27T10:50:23;0.90;;;0.70;;
5704;SDS011;2877;48.238;11.160;2022-09-27T10:53:11;1.23;;;0.80;;
5704;SDS011;2877;48.238;11.160;2022-09-27T10:55:39;1.00;;;0.70;;
5704;SDS011;2877;48.238;11.160;2022-09-27T10:58:06;1.30;;;1.20;;
5704;SDS011;2877;48.238;11.160;2022-09-27T11:00:45;0.97;;;0.93;;
5704;SDS011;2877;48.238;11.160;2022-09-27T11:03:29;2.03;;;0.80;;
5704;SDS011;2877;48.238;11.160;2022-09-27T11:05:56;0.93;;;0.80;;
5704;SDS011;2877;48.238;11.160;2022-09-27T11:13:37;0.93;;;0.80;;
5704;SDS011;2877;48.238;11.160;2022-09-27T11:21:36;0.80;;;0.60;;
5704;SDS011;2877;48.238;11.160;2022-09-27T11:30:04;1.97;;;0.50;;
5704;SDS011;2877;48.238;11.160;2022-09-27T11:32:40;0.60;;;0.60;;
5704;SDS011;2877;48.238;11.160;2022-09-27T11:35:15;1.53;;;0.77;;
5704;SDS011;2877;48.238;11.160;2022-09-27T11:51:46;0.67;;;0.67;;
5704;SDS011;2877;48.238;11.160;2022-09-27T12:02:34;1.73;;;0.63;;
5704;SDS011;2877;48.238;11.160;2022-09-27T12:10:42;0.93;;;0.63;;
5704;SDS011;2877;48.238;11.160;2022-09-27T12:13:13;1.10;;;0.70;;
5704;SDS011;2877;48.238;11.160;2022-09-27T12:15:43;2.93;;;0.70;;
5704;SDS011;2877;48.238;11.160;2022-09-27T12:18:13;0.80;;;0.80;;
5704;SDS011;2877;48.238;11.160;2022-09-27T12:20:48;0.73;;;0.73;;
5704;SDS011;2877;48.238;11.160;2022-09-27T12:23:25;0.93;;;0.90;;
5704;SDS011;2877;48.238;11.160;2022-09-27T12:26:03;0.80;;;0.70;;
5704;SDS011;2877;48.238;11.160;2022-09-27T12:28:40;0.70;;;0.70;;
5704;SDS011;2877;48.238;11.160;2022-09-27T12:34:17;2.20;;;0.90;;
5704;SDS011;2877;48.238;11.160;2022-09-27T12:36:48;0.97;;;0.87;;
5704;SDS011;2877;48.238;11.160;2022-09-27T12:39:27;1.27;;;0.87;;
5704;SDS011;2877;48.238;11.160;2022-09-27T12:42:25;0.80;;;0.80;;
5704;SDS011;2877;48.238;11.160;2022-09-27T12:45:09;2.10;;;1.80;;
5704;SDS011;2877;48.238;11.160;2022-09-27T12:47:54;1.13;;;1.00;;
5704;SDS011;2877;48.238;11.160;2022-09-27T12:50:34;1.40;;;1.00;;
5704;SDS011;2877;48.238;11.160;2022-09-27T12:53:21;0.87;;;0.83;;
5704;SDS011;2877;48.238;11.160;2022-09-27T12:58:40;0.50;;;0.50;;
5704;SDS011;2877;48.238;11.160;2022-09-27T13:14:39;1.17;;;0.60;;
5704;SDS011;2877;48.238;11.160;2022-09-27T13:20:47;0.60;;;0.60;;
5704;SDS011;2877;48.238;11.160;2022-09-27T13:22:59;0.50;;;0.50;;
5704;SDS011;2877;48.238;11.160;2022-09-27T13:29:10;0.60;;;0.50;;
5704;SDS011;2877;48.238;11.160;2022-09-27T13:31:13;0.60;;;0.57;;
5704;SDS011;2877;48.238;11.160;2022-09-27T13:33:46;0.53;;;0.40;;
5704;SDS011;2877;48.238;11.160;2022-09-27T13:41:19;1.70;;;0.70;;
5704;SDS011;2877;48.238;11.160;2022-09-27T13:46:21;1.40;;;0.50;;
5704;SDS011;2877;48.238;11.160;2022-09-27T13:49:50;0.50;;;0.50;;
5704;SDS011;2877;48.238;11.160;2022-09-27T13:51:56;0.53;;;0.50;;
5704;SDS011;2877;48.238;11.160;2022-09-27T13:56:58;0.60;;;0.60;;
5704;SDS011;2877;48.238;11.160;2022-09-27T14:04:49;2.93;;;0.50;;
5704;SDS011;2877;48.238;11.160;2022-09-27T14:07:16;0.60;;;0.60;;
5704;SDS011;2877;48.238;11.160;2022-09-27T14:09:46;0.50;;;0.50;;
5704;SDS011;2877;48.238;11.160;2022-09-27T14:12:18;0.63;;;0.63;;
5704;SDS011;2877;48.238;11.160;2022-09-27T14:14:48;0.50;;;0.40;;
5704;SDS011;2877;48.238;11.160;2022-09-27T14:17:17;0.50;;;0.50;;
5704;SDS011;2877;48.238;11.160;2022-09-27T14:19:43;0.50;;;0.50;;
5704;SDS011;2877;48.238;11.160;2022-09-27T14:22:16;1.33;;;0.80;;
5704;SDS011;2877;48.238;11.160;2022-09-27T14:24:45;0.60;;;0.60;;
5704;SDS011;2877;48.238;11.160;2022-09-27T14:29:55;3.30;;;0.60;;
5704;SDS011;2877;48.238;11.160;2022-09-27T14:32:25;1.60;;;0.50;;
5704;SDS011;2877;48.238;11.160;2022-09-27T14:38:00;0.60;;;0.60;;
5704;SDS011;2877;48.238;11.160;2022-09-27T14:40:27;1.00;;;0.60;;
5704;SDS011;2877;48.238;11.160;2022-09-27T14:42:54;0.57;;;0.50;;
5704;SDS011;2877;48.238;11.160;2022-09-27T14:47:53;0.60;;;0.60;;
5704;SDS011;2877;48.238;11.160;2022-09-27T14:52:49;1.13;;;0.80;;
5704;SDS011;2877;48.238;11.160;2022-09-27T14:55:20;0.50;;;0.50;;
5704;SDS011;2877;48.238;11.160;2022-09-27T14:57:59;0.83;;;0.83;;
5704;SDS011;2877;48.238;11.160;2022-09-27T15:00:28;0.80;;;0.80;;
5704;SDS011;2877;48.238;11.160;2022-09-27T15:02:56;1.10;;;0.70;;
5704;SDS011;2877;48.238;11.160;2022-09-27T15:05:25;3.50;;;0.70;;
5704;SDS011;2877;48.238;11.160;2022-09-27T15:07:53;0.60;;;0.60;;
5704;SDS011;2877;48.238;11.160;2022-09-27T15:10:22;2.03;;;0.60;;
5704;SDS011;2877;48.238;11.160;2022-09-27T15:12:55;1.80;;;0.90;;
5704;SDS011;2877;48.238;11.160;2022-09-27T15:15:25;3.50;;;1.00;;
5704;SDS011;2877;48.238;11.160;2022-09-27T15:17:55;3.90;;;1.47;;
5704;SDS011;2877;48.238;11.160;2022-09-27T15:22:58;1.77;;;0.70;;
5704;SDS011;2877;48.238;11.160;2022-09-27T15:25:28;1.73;;;1.30;;
5704;SDS011;2877;48.238;11.160;2022-09-27T15:28:05;2.10;;;1.17;;
5704;SDS011;2877;48.238;11.160;2022-09-27T15:30:41;1.73;;;1.20;;
5704;SDS011;2877;48.238;11.160;2022-09-27T15:33:17;1.43;;;1.30;;
5704;SDS011;2877;48.238;11.160;2022-09-27T15:35:51;1.10;;;1.00;;
5704;SDS011;2877;48.238;11.160;2022-09-27T15:38:25;1.43;;;1.00;;
5704;SDS011;2877;48.238;11.160;2022-09-27T15:43:21;0.90;;;0.90;;
5704;SDS011;2877;48.238;11.160;2022-09-27T15:46:00;1.60;;;1.50;;
5704;SDS011;2877;48.238;11.160;2022-09-27T15:51:55;0.90;;;0.90;;
5704;SDS011;2877;48.238;11.160;2022-09-27T15:54:23;1.17;;;1.10;;
5704;SDS011;2877;48.238;11.160;2022-09-27T15:56:51;4.27;;;2.50;;
5704;SDS011;2877;48.238;11.160;2022-09-27T15:59:20;2.23;;;1.83;;
5704;SDS011;2877;48.238;11.160;2022-09-27T16:01:48;1.80;;;1.70;;
5704;SDS011;2877;48.238;11.160;2022-09-27T16:04:16;2.80;;;2.60;;
5704;SDS011;2877;48.238;11.160;2022-09-27T16:06:42;3.40;;;3.07;;
5704;SDS011;2877;48.238;11.160;2022-09-27T16:09:15;11.00;;;9.47;;
5704;SDS011;2877;48.238;11.160;2022-09-27T16:11:42;5.40;;;2.07;;
5704;SDS011;2877;48.238;11.160;2022-09-27T16:14:08;2.70;;;2.50;;
5704;SDS011;2877;48.238;11.160;2022-09-27T16:16:34;3.63;;;2.50;;
5704;SDS011;2877;48.238;11.160;2022-09-27T16:18:59;1.87;;;1.40;;
5704;SDS011;2877;48.238;11.160;2022-09-27T16:21:25;2.87;;;1.33;;
5704;SDS011;2877;48.238;11.160;2022-09-27T16:23:50;2.60;;;2.40;;
5704;SDS011;2877;48.238;11.160;2022-09-27T16:26:16;5.30;;;2.57;;
5704;SDS011;2877;48.238;11.160;2022-09-27T16:28:43;3.17;;;2.93;;
5704;SDS011;2877;48.238;11.160;2022-09-27T16:31:09;6.40;;;4.30;;
5704;SDS011;2877;48.238;11.160;2022-09-27T16:33:36;4.33;;;3.07;;
5704;SDS011;2877;48.238;11.160;2022-09-27T16:36:04;3.20;;;2.20;;
5704;SDS011;2877;48.238;11.160;2022-09-27T16:38:31;9.83;;;3.10;;
5704;SDS011;2877;48.238;11.160;2022-09-27T16:41:01;4.77;;;2.60;;
5704;SDS011;2877;48.238;11.160;2022-09-27T16:43:27;7.77;;;3.10;;
5704;SDS011;2877;48.238;11.160;2022-09-27T16:45:53;2.90;;;1.70;;
5704;SDS011;2877;48.238;11.160;2022-09-27T16:48:22;3.00;;;2.50;;
5704;SDS011;2877;48.238;11.160;2022-09-27T16:50:48;4.80;;;3.17;;
5704;SDS011;2877;48.238;11.160;2022-09-27T16:53:32;2.40;;;2.03;;
5704;SDS011;2877;48.238;11.160;2022-09-27T16:55:58;1.63;;;1.40;;
5704;SDS011;2877;48.238;11.160;2022-09-27T16:58:24;6.30;;;1.70;;
5704;SDS011;2877;48.238;11.160;2022-09-27T17:00:50;9.07;;;8.10;;
5704;SDS011;2877;48.238;11.160;2022-09-27T17:03:16;7.90;;;5.10;;
5704;SDS011;2877;48.238;11.160;2022-09-27T17:05:41;15.20;;;8.83;;
5704;SDS011;2877;48.238;11.160;2022-09-27T17:08:06;7.17;;;4.10;;
5704;SDS011;2877;48.238;11.160;2022-09-27T17:10:32;3.43;;;2.70;;
5704;SDS011;2877;48.238;11.160;2022-09-27T17:12:59;2.87;;;1.80;;
5704;SDS011;2877;48.238;11.160;2022-09-27T17:15:25;2.50;;;1.30;;
5704;SDS011;2877;48.238;11.160;2022-09-27T17:17:52;2.70;;;2.50;;
5704;SDS011;2877;48.238;11.160;2022-09-27T17:20:17;4.57;;;3.13;;
5704;SDS011;2877;48.238;11.160;2022-09-27T17:22:43;7.60;;;4.93;;
5704;SDS011;2877;48.238;11.160;2022-09-27T17:25:08;3.43;;;1.90;;
5704;SDS011;2877;48.238;11.160;2022-09-27T17:27:34;1.40;;;1.30;;
5704;SDS011;2877;48.238;11.160;2022-09-27T17:29:59;3.90;;;2.30;;
5704;SDS011;2877;48.238;11.160;2022-09-27T17:32:25;3.40;;;2.03;;
5704;SDS011;2877;48.238;11.160;2022-09-27T17:34:50;2.80;;;2.50;;
5704;SDS011;2877;48.238;11.160;2022-09-27T17:37:16;4.40;;;2.40;;
5704;SDS011;2877;48.238;11.160;2022-09-27T17:39:41;3.40;;;3.10;;
5704;SDS011;2877;48.238;11.160;2022-09-27T17:42:07;3.27;;;2.63;;
5704;SDS011;2877;48.238;11.160;2022-09-27T17:44:33;2.60;;;2.30;;
5704;SDS011;2877;48.238;11.160;2022-09-27T17:46:58;2.50;;;2.30;;
5704;SDS011;2877;48.238;11.160;2022-09-27T17:49:43;2.23;;;2.03;;
5704;SDS011;2877;48.238;11.160;2022-09-27T17:52:27;5.50;;;2.27;;
5704;SDS011;2877;48.238;11.160;2022-09-27T17:54:54;4.30;;;2.10;;
5704;SDS011;2877;48.238;11.160;2022-09-27T17:57:22;5.10;;;2.33;;
5704;SDS011;2877;48.238;11.160;2022-09-27T17:59:48;4.87;;;2.37;;
5704;SDS011;2877;48.238;11.160;2022-09-27T18:02:13;3.60;;;2.23;;
5704;SDS011;2877;48.238;11.160;2022-09-27T18:04:39;3.80;;;3.07;;
5704;SDS011;2877;48.238;11.160;2022-09-27T18:07:04;2.40;;;2.20;;
5704;SDS011;2877;48.238;11.160;2022-09-27T18:09:30;4.03;;;2.10;;
5704;SDS011;2877;48.238;11.160;2022-09-27T18:11:55;1.87;;;1.77;;
5704;SDS011;2877;48.238;11.160;2022-09-27T18:14:22;1.80;;;1.70;;
5704;SDS011;2877;48.238;11.160;2022-09-27T18:16:50;3.70;;;1.87;;
5704;SDS011;2877;48.238;11.160;2022-09-27T18:19:18;3.07;;;1.60;;
5704;SDS011;2877;48.238;11.160;2022-09-27T18:21:43;2.90;;;1.80;;
5704;SDS011;2877;48.238;11.160;2022-09-27T18:24:09;2.83;;;1.80;;
5704;SDS011;2877;48.238;11.160;2022-09-27T18:26:35;1.70;;;1.60;;
5704;SDS011;2877;48.238;11.160;2022-09-27T18:29:04;2.03;;;1.70;;
5704;SDS011;2877;48.238;11.160;2022-09-27T18:31:31;3.40;;;1.50;;
5704;SDS011;2877;48.238;11.160;2022-09-27T18:33:57;1.60;;;1.50;;